createdAt,value
2022-08-26T00:04:18.454Z,25.60
2022-08-26T00:09:23.419Z,24.00
2022-08-26T00:14:30.962Z,19.40
2022-08-26T00:19:34.109Z,18.90
2022-08-26T00:24:36.985Z,15.80
2022-08-26T00:29:41.163Z,22.70
2022-08-26T00:34:44.242Z,18.10
2022-08-26T00:39:47.107Z,20.00
2022-08-26T00:44:50.715Z,22.60
2022-08-26T00:49:54.056Z,16.40
2022-08-26T00:55:20.497Z,17.60
2022-08-26T01:00:27.865Z,15.00
2022-08-26T01:05:32.626Z,13.10
2022-08-26T01:10:35.761Z,10.80
2022-08-26T01:15:50.015Z,12.10
2022-08-26T01:21:22.485Z,14.30
2022-08-26T01:26:40.647Z,8.80
2022-08-26T01:31:49.661Z,9.30
2022-08-26T01:37:11.709Z,11.50
2022-08-26T01:42:21.379Z,9.80
2022-08-26T01:47:30.198Z,11.80
2022-08-26T01:52:38.074Z,10.70
2022-08-26T01:57:43.243Z,10.00
2022-08-26T02:02:49.974Z,10.20
2022-08-26T02:07:53.090Z,7.70
2022-08-26T02:12:56.266Z,8.30
2022-08-26T02:18:03.196Z,7.00
2022-08-26T02:23:07.139Z,7.30
2022-08-26T02:28:12.766Z,5.00
2022-08-26T02:33:15.626Z,6.00
2022-08-26T02:38:18.560Z,7.50
2022-08-26T02:43:23.858Z,9.40
2022-08-26T02:48:34.436Z,11.20
2022-08-26T02:53:39.276Z,9.30
2022-08-26T02:58:42.673Z,9.50
2022-08-26T03:03:46.619Z,12.70
2022-08-26T03:08:53.114Z,9.20
2022-08-26T03:13:55.928Z,9.30
2022-08-26T03:18:58.807Z,9.50
2022-08-26T03:24:02.142Z,8.10
2022-08-26T03:29:34.988Z,10.10
2022-08-26T03:34:37.967Z,9.60
2022-08-26T03:39:41.953Z,7.10
2022-08-26T03:44:44.751Z,11.80
2022-08-26T03:49:47.609Z,11.00
2022-08-26T03:54:51.002Z,6.90
2022-08-26T03:59:53.851Z,9.50
2022-08-26T04:04:56.943Z,9.00
2022-08-26T04:09:59.872Z,11.10
2022-08-26T04:15:09.157Z,9.90
2022-08-26T04:20:16.244Z,10.20
2022-08-26T04:25:20.624Z,8.00
2022-08-26T04:30:23.643Z,13.70
2022-08-26T04:35:28.689Z,10.30
2022-08-26T04:40:32.623Z,14.60
2022-08-26T04:45:40.646Z,16.00
2022-08-26T04:50:43.636Z,9.80
2022-08-26T04:55:46.612Z,15.80
2022-08-26T05:00:54.105Z,15.40
2022-08-26T05:05:57.415Z,16.30
2022-08-26T05:11:05.339Z,12.90
2022-08-26T05:16:11.923Z,16.40
2022-08-26T05:21:37.123Z,13.70
2022-08-26T05:26:42.541Z,14.90
2022-08-26T05:31:51.737Z,15.80
2022-08-26T05:36:59.306Z,16.10
2022-08-26T05:42:03.370Z,14.20
2022-08-26T05:47:07.776Z,15.10
2022-08-26T05:52:11.839Z,14.30
2022-08-26T05:57:15.905Z,13.30
2022-08-26T06:02:18.959Z,16.20
2022-08-26T06:07:42.430Z,14.40
2022-08-26T06:12:45.448Z,14.40
2022-08-26T06:17:48.517Z,14.00
2022-08-26T06:23:11.381Z,12.10
2022-08-26T06:28:15.482Z,11.20
2022-08-26T06:33:23.500Z,14.20
2022-08-26T06:38:26.369Z,13.60
2022-08-26T06:43:29.854Z,16.50
2022-08-26T06:48:32.923Z,12.80
2022-08-26T06:53:36.986Z,11.50
2022-08-26T06:58:42.043Z,13.70
2022-08-26T07:03:46.640Z,11.90
2022-08-26T07:08:52.602Z,18.90
2022-08-26T07:13:56.039Z,13.60
2022-08-26T07:18:59.023Z,12.10
2022-08-26T07:24:04.568Z,9.90
2022-08-26T07:29:07.446Z,8.80
2022-08-26T07:34:14.000Z,9.00
2022-08-26T07:39:17.188Z,11.20
2022-08-26T07:44:21.269Z,20.70
2022-08-26T07:49:26.737Z,14.50
2022-08-26T07:54:31.026Z,9.70
2022-08-26T07:59:34.191Z,10.90
2022-08-26T08:04:37.206Z,9.90
2022-08-26T08:09:41.548Z,12.50
2022-08-26T08:14:46.911Z,10.50
2022-08-26T08:19:51.591Z,8.60
2022-08-26T08:24:56.202Z,9.40
2022-08-26T08:30:00.491Z,12.60
2022-08-26T08:35:10.945Z,11.40
2022-08-26T08:40:18.338Z,11.30
2022-08-26T08:45:51.020Z,11.10
2022-08-26T08:51:01.698Z,9.40
2022-08-26T08:56:15.986Z,9.90
2022-08-26T09:01:26.443Z,9.30
2022-08-26T09:06:29.847Z,9.00
2022-08-26T09:11:32.956Z,12.20
2022-08-26T09:17:00.943Z,9.00
2022-08-26T09:22:08.735Z,8.70
2022-08-26T09:27:38.152Z,10.50
2022-08-26T09:32:42.151Z,8.00
2022-08-26T09:43:23.117Z,7.90
2022-08-26T09:48:36.291Z,7.20
2022-08-26T09:53:52.570Z,9.90
2022-08-26T09:58:57.332Z,8.10
2022-08-26T10:04:26.775Z,10.00
2022-08-26T10:09:37.061Z,8.00
2022-08-26T10:14:51.576Z,10.70
2022-08-26T10:20:23.457Z,10.70
2022-08-26T10:25:33.654Z,7.40
2022-08-26T10:30:47.352Z,10.70
2022-08-26T10:35:56.187Z,12.30
2022-08-26T10:41:10.400Z,11.50
2022-08-26T10:46:22.570Z,7.00
2022-08-26T10:51:42.202Z,9.60
2022-08-26T10:56:55.699Z,7.70
2022-08-26T11:02:11.804Z,8.00
2022-08-26T11:07:40.557Z,10.90
2022-08-26T11:12:49.096Z,8.10
2022-08-26T11:17:52.162Z,8.40
2022-08-26T11:23:17.523Z,10.00
2022-08-26T11:28:34.746Z,8.90
2022-08-26T11:34:03.367Z,7.40
2022-08-26T11:39:29.153Z,7.10
2022-08-26T11:44:49.343Z,9.10
2022-08-26T11:50:27.004Z,8.10
2022-08-26T11:55:32.590Z,8.30
2022-08-26T12:00:45.761Z,7.70
2022-08-26T12:05:52.571Z,9.20
2022-08-26T12:11:09.747Z,7.20
2022-08-26T12:16:13.925Z,9.40
2022-08-26T12:21:24.423Z,6.90
2022-08-26T12:26:30.992Z,6.40
2022-08-26T12:31:40.230Z,8.40
2022-08-26T12:36:55.270Z,7.00
2022-08-26T12:47:10.976Z,5.20
2022-08-26T12:52:30.212Z,6.00
2022-08-26T12:57:37.538Z,7.20
2022-08-26T13:02:40.502Z,7.80
2022-08-26T13:07:46.088Z,7.30
2022-08-26T13:12:49.093Z,7.40
2022-08-26T13:17:52.317Z,8.20
2022-08-26T13:22:59.609Z,6.70
2022-08-26T13:28:02.802Z,9.90
2022-08-26T13:33:05.813Z,8.00
2022-08-26T13:38:18.590Z,8.20
2022-08-26T13:43:37.332Z,7.20
2022-08-26T13:48:43.305Z,6.30
2022-08-26T13:53:48.668Z,6.40
2022-08-26T13:58:51.780Z,7.80
2022-08-26T14:03:56.345Z,9.80
2022-08-26T14:08:59.654Z,9.70
2022-08-26T14:14:04.184Z,10.60
2022-08-26T14:19:09.052Z,11.20
2022-08-26T14:29:16.789Z,6.40
2022-08-26T14:39:23.359Z,6.80
2022-08-26T14:44:32.158Z,6.90
2022-08-26T14:49:35.195Z,6.40
2022-08-26T14:54:38.239Z,7.00
2022-08-26T14:59:45.450Z,7.70
2022-08-26T15:04:53.574Z,8.70
2022-08-26T15:09:56.591Z,7.80
2022-08-26T15:14:59.665Z,6.10
2022-08-26T15:20:04.122Z,6.00
2022-08-26T15:25:08.398Z,6.80
2022-08-26T15:30:12.922Z,6.50
2022-08-26T15:35:15.976Z,9.80
2022-08-26T15:40:22.069Z,7.30
2022-08-26T15:45:26.399Z,6.70
2022-08-26T15:50:30.017Z,7.40
2022-08-26T15:55:33.056Z,7.50
2022-08-26T16:00:37.347Z,6.60
2022-08-26T16:05:43.641Z,5.90
2022-08-26T16:10:50.599Z,6.20
2022-08-26T16:15:53.841Z,6.70
2022-08-26T16:21:13.479Z,8.50
2022-08-26T16:26:20.736Z,12.80
2022-08-26T16:31:23.893Z,8.00
2022-08-26T16:36:27.116Z,7.70
2022-08-26T16:41:31.501Z,8.60
2022-08-26T16:46:37.004Z,10.40
2022-08-26T16:51:40.578Z,11.00
2022-08-26T16:56:43.501Z,9.10
2022-08-26T17:01:46.501Z,6.90
2022-08-26T17:06:50.276Z,8.10
2022-08-26T17:11:54.436Z,6.50
2022-08-26T17:16:57.801Z,8.80
2022-08-26T17:22:00.786Z,11.90
2022-08-26T17:27:09.268Z,7.50
2022-08-26T17:32:12.874Z,10.40
2022-08-26T17:37:16.997Z,8.10
2022-08-26T17:42:19.983Z,10.70
2022-08-26T17:47:23.390Z,8.80
2022-08-26T17:52:26.246Z,10.20
2022-08-26T17:57:31.338Z,12.40
2022-08-26T18:02:38.189Z,6.70
2022-08-26T18:07:44.064Z,10.60
2022-08-26T18:12:50.922Z,11.10
2022-08-26T18:17:55.157Z,7.50
2022-08-26T18:22:59.319Z,7.70
2022-08-26T18:28:03.117Z,8.00
2022-08-26T18:33:05.988Z,6.10
2022-08-26T18:38:11.031Z,11.20
2022-08-26T18:43:16.035Z,8.10
2022-08-26T18:48:18.880Z,6.80
2022-08-26T18:53:21.787Z,7.60
2022-08-26T18:58:25.570Z,7.90
2022-08-26T19:03:28.796Z,7.40
2022-08-26T19:08:32.001Z,14.50
2022-08-26T19:13:36.541Z,16.40
2022-08-26T19:18:39.473Z,16.70
2022-08-26T19:23:42.879Z,18.00
2022-08-26T19:28:45.810Z,12.80
2022-08-26T19:33:48.818Z,13.50
2022-08-26T19:38:55.995Z,17.40
2022-08-26T19:43:59.534Z,15.80
2022-08-26T19:49:03.200Z,14.90
2022-08-26T19:54:06.529Z,12.70
2022-08-26T19:59:09.400Z,16.20
2022-08-26T20:04:12.663Z,14.90
2022-08-26T20:09:15.572Z,15.20
2022-08-26T20:14:22.960Z,15.30
2022-08-26T20:19:45.756Z,13.70
2022-08-26T20:24:49.802Z,15.90
2022-08-26T20:29:54.024Z,15.30
2022-08-26T20:34:57.368Z,9.80
2022-08-26T20:40:01.529Z,11.70
2022-08-26T20:45:06.847Z,11.40
2022-08-26T20:50:10.982Z,11.50
2022-08-26T20:55:14.338Z,11.00
2022-08-26T21:00:22.771Z,12.70
2022-08-26T21:05:29.599Z,12.40
2022-08-26T21:10:32.671Z,16.90
2022-08-26T21:15:35.819Z,11.40
2022-08-26T21:20:38.713Z,11.70
2022-08-26T21:25:42.456Z,11.40
2022-08-26T21:30:45.423Z,9.90
2022-08-26T21:35:55.593Z,12.80
2022-08-26T21:41:05.265Z,10.20
2022-08-26T21:46:14.293Z,10.40
2022-08-26T21:51:20.009Z,11.90
2022-08-26T21:56:26.467Z,13.10
2022-08-26T22:01:35.079Z,12.40
2022-08-26T22:06:45.460Z,12.00
2022-08-26T22:11:49.120Z,13.30
2022-08-26T22:16:52.259Z,10.30
2022-08-26T22:21:56.519Z,11.00
2022-08-26T22:26:59.386Z,11.60
2022-08-26T22:32:02.519Z,11.10
2022-08-26T22:37:06.651Z,11.00
2022-08-26T22:42:09.594Z,9.70
2022-08-26T22:47:13.473Z,9.60
2022-08-26T22:52:16.426Z,12.10
2022-08-26T22:57:21.214Z,12.20
2022-08-26T23:02:24.439Z,13.20
2022-08-26T23:07:27.671Z,12.00
2022-08-26T23:12:31.645Z,11.10
2022-08-26T23:17:36.089Z,12.60
2022-08-26T23:22:40.298Z,10.50
2022-08-26T23:27:43.763Z,10.70
2022-08-26T23:32:47.013Z,10.30
2022-08-26T23:37:53.453Z,9.80
2022-08-26T23:43:04.741Z,10.60
2022-08-26T23:48:08.540Z,11.00
2022-08-26T23:53:25.835Z,13.40
2022-08-26T23:58:28.769Z,13.90
